EWG5T LXGB-LFKC
Flight info
| Callsign | EWG5T |
|---|---|
| Flight time | 2h 1m |
| Altitude | 35000 |
| Route | RIXUR N851 ISTER DCT LUNOR DCT NOLVI DCT GARPU DCT LIBLO |
| Aircraft | A320/M-SDE3FGHIRWY/LB1 |
Departure
| Time | 2026-04-29 08:52 |
|---|---|
| Airport | Gibraltar Airport (LXGB) |
Arrival
| Time | 2026-04-29 10:53 |
|---|---|
| Airport | Calvi Sainte Catherine Airport (LFKC) |
| Time | Latitude | Longitude | Altitude | Speed | Heading |
|---|---|---|---|---|---|
| 2026-04-29 08:25 | 36.15301 | -5.34676 | 19 ft | 0 kts | 357° |
| 2026-04-29 08:44 | 36.15277 | -5.34675 | 20 ft | 4 kts | 2° |
| 2026-04-29 08:44 | 36.15250 | -5.34678 | 19 ft | 4 kts | 16° |
| 2026-04-29 08:44 | 36.15229 | -5.34692 | 19 ft | 4 kts | 72° |
| 2026-04-29 08:44 | 36.15227 | -5.34700 | 21 ft | 1 kts | 96° |
| 2026-04-29 08:48 | 36.15226 | -5.34682 | 18 ft | 8 kts | 95° |
| 2026-04-29 08:48 | 36.15228 | -5.34607 | 18 ft | 9 kts | 87° |
| 2026-04-29 08:48 | 36.15230 | -5.34537 | 18 ft | 8 kts | 88° |
| 2026-04-29 08:48 | 36.15233 | -5.34457 | 18 ft | 12 kts | 87° |
| 2026-04-29 08:49 | 36.15236 | -5.34361 | 18 ft | 10 kts | 87° |
| 2026-04-29 08:49 | 36.15240 | -5.34277 | 18 ft | 9 kts | 89° |
| 2026-04-29 08:49 | 36.15201 | -5.34234 | 17 ft | 11 kts | 173° |
| 2026-04-29 08:49 | 36.15151 | -5.34213 | 17 ft | 12 kts | 130° |
| 2026-04-29 08:50 | 36.15174 | -5.34081 | 16 ft | 12 kts | 62° |
| 2026-04-29 08:50 | 36.15156 | -5.34027 | 16 ft | 4 kts | 193° |
| 2026-04-29 08:50 | 36.15150 | -5.34052 | 16 ft | 2 kts | 266° |
| 2026-04-29 08:50 | 36.15149 | -5.34054 | 16 ft | 0 kts | 266° |
| 2026-04-29 08:51 | 36.15149 | -5.34057 | 16 ft | 5 kts | 266° |
| 2026-04-29 08:51 | 36.15134 | -5.34467 | 16 ft | 88 kts | 268° |
| 2026-04-29 08:51 | 36.15095 | -5.35516 | 25 ft | 151 kts | 266° |
| 2026-04-29 08:51 | 36.15046 | -5.36817 | 612 ft | 153 kts | 265° |
| 2026-04-29 08:52 | 36.15001 | -5.38130 | 1286 ft | 152 kts | 266° |
| 2026-04-29 08:52 | 36.14923 | -5.39475 | 1639 ft | 166 kts | 255° |
| 2026-04-29 08:52 | 36.14238 | -5.40684 | 1889 ft | 186 kts | 212° |
| 2026-04-29 08:52 | 36.12976 | -5.41095 | 2440 ft | 194 kts | 180° |
| 2026-04-29 08:53 | 36.11629 | -5.40985 | 3133 ft | 194 kts | 179° |
| 2026-04-29 08:53 | 36.10234 | -5.40867 | 3517 ft | 212 kts | 178° |
| 2026-04-29 08:53 | 36.08674 | -5.40739 | 3840 ft | 237 kts | 178° |
| 2026-04-29 08:53 | 36.06977 | -5.40381 | 4332 ft | 258 kts | 161° |
| 2026-04-29 08:54 | 36.05443 | -5.39168 | 5112 ft | 269 kts | 137° |
| 2026-04-29 08:54 | 36.04422 | -5.37205 | 5961 ft | 279 kts | 111° |
| 2026-04-29 08:54 | 36.04184 | -5.34812 | 6791 ft | 287 kts | 85° |
| 2026-04-29 08:54 | 36.04848 | -5.32470 | 7612 ft | 295 kts | 57° |
| 2026-04-29 08:55 | 36.06107 | -5.30436 | 8477 ft | 299 kts | 52° |
| 2026-04-29 08:55 | 36.07414 | -5.28412 | 9379 ft | 302 kts | 52° |
| 2026-04-29 08:55 | 36.08735 | -5.26366 | 10166 ft | 307 kts | 52° |
| 2026-04-29 08:55 | 36.10112 | -5.24225 | 10481 ft | 330 kts | 52° |
| 2026-04-29 08:56 | 36.11584 | -5.21929 | 10802 ft | 349 kts | 52° |
| 2026-04-29 08:56 | 36.13087 | -5.19579 | 11433 ft | 356 kts | 52° |
| 2026-04-29 08:56 | 36.14633 | -5.17155 | 12174 ft | 361 kts | 52° |
| 2026-04-29 08:56 | 36.16219 | -5.14667 | 12889 ft | 366 kts | 52° |
| 2026-04-29 08:57 | 36.17806 | -5.12177 | 13584 ft | 370 kts | 52° |
| 2026-04-29 08:57 | 36.19386 | -5.09695 | 14194 ft | 374 kts | 52° |
| 2026-04-29 08:57 | 36.21007 | -5.07152 | 14796 ft | 378 kts | 52° |
| 2026-04-29 08:57 | 36.22645 | -5.04582 | 15395 ft | 382 kts | 52° |
| 2026-04-29 08:58 | 36.24298 | -5.01983 | 16006 ft | 386 kts | 52° |
| 2026-04-29 08:58 | 36.25968 | -4.99350 | 16602 ft | 389 kts | 52° |
| 2026-04-29 08:58 | 36.27651 | -4.96699 | 17200 ft | 393 kts | 52° |
| 2026-04-29 08:58 | 36.29350 | -4.94022 | 17804 ft | 397 kts | 52° |
| 2026-04-29 08:59 | 36.31067 | -4.91314 | 18365 ft | 401 kts | 52° |
| 2026-04-29 08:59 | 36.32800 | -4.88576 | 18876 ft | 405 kts | 52° |
| 2026-04-29 08:59 | 36.34541 | -4.85822 | 19399 ft | 408 kts | 51° |
| 2026-04-29 08:59 | 36.36298 | -4.83039 | 19927 ft | 411 kts | 51° |
| 2026-04-29 09:00 | 36.38066 | -4.80238 | 20458 ft | 414 kts | 51° |
| 2026-04-29 09:00 | 36.39850 | -4.77408 | 20986 ft | 417 kts | 51° |
| 2026-04-29 09:00 | 36.41646 | -4.74559 | 21516 ft | 420 kts | 50° |
| 2026-04-29 09:00 | 36.43456 | -4.71684 | 22038 ft | 424 kts | 50° |
| 2026-04-29 09:01 | 36.45277 | -4.68787 | 22549 ft | 427 kts | 50° |
| 2026-04-29 09:01 | 36.47111 | -4.65870 | 23045 ft | 430 kts | 50° |
| 2026-04-29 09:01 | 36.48959 | -4.62929 | 23537 ft | 433 kts | 50° |
| 2026-04-29 09:01 | 36.50799 | -4.59996 | 23933 ft | 436 kts | 50° |
| 2026-04-29 09:02 | 36.52673 | -4.57009 | 24330 ft | 439 kts | 50° |
| 2026-04-29 09:02 | 36.54556 | -4.54010 | 24721 ft | 441 kts | 49° |
| 2026-04-29 09:02 | 36.56454 | -4.50994 | 25108 ft | 444 kts | 49° |
| 2026-04-29 09:02 | 36.58373 | -4.47958 | 25507 ft | 446 kts | 49° |
| 2026-04-29 09:03 | 36.60302 | -4.44914 | 25875 ft | 449 kts | 49° |
| 2026-04-29 09:03 | 36.62237 | -4.41856 | 26238 ft | 451 kts | 49° |
| 2026-04-29 09:03 | 36.64180 | -4.38776 | 26598 ft | 454 kts | 49° |
| 2026-04-29 09:03 | 36.66130 | -4.35673 | 26959 ft | 456 kts | 49° |
| 2026-04-29 09:04 | 36.68085 | -4.32554 | 27301 ft | 458 kts | 49° |
| 2026-04-29 09:04 | 36.70051 | -4.29414 | 27652 ft | 460 kts | 49° |
| 2026-04-29 09:04 | 36.72027 | -4.26256 | 27989 ft | 462 kts | 49° |
| 2026-04-29 09:04 | 36.74009 | -4.23087 | 28331 ft | 465 kts | 49° |
| 2026-04-29 09:05 | 36.76004 | -4.19896 | 28661 ft | 467 kts | 49° |
| 2026-04-29 09:05 | 36.78004 | -4.16694 | 28980 ft | 469 kts | 49° |
| 2026-04-29 09:05 | 36.80011 | -4.13477 | 29284 ft | 471 kts | 49° |
| 2026-04-29 09:05 | 36.82025 | -4.10246 | 29595 ft | 473 kts | 49° |
| 2026-04-29 09:06 | 36.84026 | -4.07043 | 29899 ft | 475 kts | 48° |
| 2026-04-29 09:06 | 36.86065 | -4.03780 | 30166 ft | 477 kts | 48° |
| 2026-04-29 09:06 | 36.88106 | -4.00508 | 30405 ft | 478 kts | 48° |
| 2026-04-29 09:06 | 36.90152 | -3.97219 | 30630 ft | 480 kts | 49° |
| 2026-04-29 09:07 | 36.92201 | -3.93918 | 30864 ft | 482 kts | 49° |
| 2026-04-29 09:07 | 36.94234 | -3.90635 | 31082 ft | 483 kts | 49° |
| 2026-04-29 09:07 | 36.96295 | -3.87301 | 31338 ft | 484 kts | 49° |
| 2026-04-29 09:07 | 36.98349 | -3.83978 | 31642 ft | 483 kts | 49° |
| 2026-04-29 09:08 | 37.00403 | -3.80660 | 31942 ft | 482 kts | 49° |
| 2026-04-29 09:08 | 37.02458 | -3.77341 | 32259 ft | 482 kts | 49° |
| 2026-04-29 09:08 | 37.04513 | -3.74017 | 32563 ft | 482 kts | 49° |
| 2026-04-29 09:08 | 37.06560 | -3.70700 | 32855 ft | 481 kts | 49° |
| 2026-04-29 09:09 | 37.08602 | -3.67383 | 33145 ft | 481 kts | 49° |
| 2026-04-29 09:09 | 37.10586 | -3.64002 | 33434 ft | 483 kts | 54° |
| 2026-04-29 09:09 | 37.12226 | -3.60313 | 33718 ft | 486 kts | 61° |
| 2026-04-29 09:09 | 37.13723 | -3.56523 | 34001 ft | 485 kts | 61° |
| 2026-04-29 09:10 | 37.15199 | -3.52787 | 34251 ft | 485 kts | 61° |
| 2026-04-29 09:10 | 37.16700 | -3.48987 | 34512 ft | 485 kts | 61° |
| 2026-04-29 09:10 | 37.18197 | -3.45204 | 34772 ft | 484 kts | 61° |
| 2026-04-29 09:10 | 37.19696 | -3.41416 | 34927 ft | 484 kts | 60° |
| 2026-04-29 09:11 | 37.21183 | -3.37650 | 34965 ft | 480 kts | 61° |
| 2026-04-29 09:11 | 37.24130 | -3.30162 | 34962 ft | 477 kts | 61° |
| 2026-04-29 09:12 | 37.27060 | -3.22700 | 34950 ft | 476 kts | 61° |
| 2026-04-29 09:12 | 37.29978 | -3.15236 | 34950 ft | 476 kts | 61° |
| 2026-04-29 09:13 | 37.32888 | -3.07777 | 34949 ft | 475 kts | 61° |
| 2026-04-29 09:13 | 37.35793 | -3.00313 | 34948 ft | 474 kts | 61° |
| 2026-04-29 09:14 | 37.38662 | -2.92917 | 34947 ft | 474 kts | 61° |
| 2026-04-29 09:14 | 37.41550 | -2.85462 | 34945 ft | 473 kts | 61° |
| 2026-04-29 09:15 | 37.44441 | -2.78010 | 34949 ft | 473 kts | 61° |
| 2026-04-29 09:15 | 37.47310 | -2.70574 | 34953 ft | 473 kts | 62° |
| 2026-04-29 09:16 | 37.50176 | -2.63118 | 34960 ft | 472 kts | 62° |
| 2026-04-29 09:16 | 37.53034 | -2.55667 | 34960 ft | 472 kts | 62° |
| 2026-04-29 09:17 | 37.55886 | -2.48225 | 34967 ft | 471 kts | 62° |
| 2026-04-29 09:17 | 37.58733 | -2.40785 | 34969 ft | 471 kts | 62° |
| 2026-04-29 09:18 | 37.61549 | -2.33401 | 34969 ft | 470 kts | 62° |
| 2026-04-29 09:18 | 37.64372 | -2.25963 | 34978 ft | 470 kts | 62° |
| 2026-04-29 09:19 | 37.67191 | -2.18517 | 34978 ft | 470 kts | 63° |
| 2026-04-29 09:19 | 37.70012 | -2.11082 | 34978 ft | 469 kts | 63° |
| 2026-04-29 09:20 | 37.72823 | -2.03648 | 34981 ft | 468 kts | 63° |
| 2026-04-29 09:20 | 37.75620 | -1.96222 | 34976 ft | 468 kts | 63° |
| 2026-04-29 09:21 | 37.78416 | -1.88798 | 34970 ft | 467 kts | 63° |
| 2026-04-29 09:21 | 37.81202 | -1.81379 | 34968 ft | 467 kts | 63° |
| 2026-04-29 09:22 | 37.83966 | -1.74005 | 34965 ft | 466 kts | 64° |
| 2026-04-29 09:22 | 37.86738 | -1.66587 | 34963 ft | 466 kts | 64° |
| 2026-04-29 09:23 | 37.89503 | -1.59165 | 34967 ft | 466 kts | 64° |
| 2026-04-29 09:23 | 37.92251 | -1.51745 | 34964 ft | 465 kts | 64° |
| 2026-04-29 09:24 | 37.94990 | -1.44341 | 34967 ft | 464 kts | 65° |
| 2026-04-29 09:24 | 37.97726 | -1.36943 | 34966 ft | 463 kts | 65° |
| 2026-04-29 09:25 | 38.00446 | -1.29560 | 34969 ft | 462 kts | 65° |
| 2026-04-29 09:25 | 38.03140 | -1.22235 | 34968 ft | 461 kts | 65° |
| 2026-04-29 09:26 | 38.05837 | -1.14877 | 34969 ft | 459 kts | 65° |
| 2026-04-29 09:26 | 38.08524 | -1.07527 | 34967 ft | 458 kts | 66° |
| 2026-04-29 09:27 | 38.11205 | -1.00191 | 34966 ft | 457 kts | 66° |
| 2026-04-29 09:27 | 38.13871 | -0.92863 | 34962 ft | 456 kts | 66° |
| 2026-04-29 09:28 | 38.16524 | -0.85560 | 34963 ft | 455 kts | 66° |
| 2026-04-29 09:28 | 38.19172 | -0.78260 | 34964 ft | 454 kts | 66° |
| 2026-04-29 09:29 | 38.21792 | -0.71021 | 34965 ft | 453 kts | 66° |
| 2026-04-29 09:29 | 38.25721 | -0.60109 | 34962 ft | 452 kts | 66° |
| 2026-04-29 09:30 | 38.28277 | -0.52817 | 34958 ft | 451 kts | 68° |
| 2026-04-29 09:30 | 38.30629 | -0.45425 | 34956 ft | 450 kts | 69° |
| 2026-04-29 09:31 | 38.32920 | -0.38015 | 34946 ft | 449 kts | 69° |
| 2026-04-29 09:31 | 38.35237 | -0.30625 | 34942 ft | 449 kts | 69° |
| 2026-04-29 09:32 | 38.37612 | -0.23268 | 34942 ft | 449 kts | 68° |
| 2026-04-29 09:32 | 38.40084 | -0.15949 | 34940 ft | 449 kts | 67° |
| 2026-04-29 09:33 | 38.42553 | -0.08633 | 34940 ft | 449 kts | 68° |
| 2026-04-29 09:33 | 38.44964 | -0.01348 | 34941 ft | 449 kts | 68° |
| 2026-04-29 09:34 | 38.47359 | 0.06018 | 34942 ft | 449 kts | 68° |
| 2026-04-29 09:34 | 38.49716 | 0.13410 | 34942 ft | 449 kts | 69° |
| 2026-04-29 09:35 | 38.52069 | 0.20809 | 34941 ft | 450 kts | 69° |
| 2026-04-29 09:35 | 38.54430 | 0.28213 | 34928 ft | 450 kts | 68° |
| 2026-04-29 09:36 | 38.56796 | 0.35613 | 34940 ft | 450 kts | 68° |
| 2026-04-29 09:36 | 38.58758 | 0.41778 | 34939 ft | 451 kts | 69° |
| 2026-04-29 09:37 | 38.61111 | 0.49211 | 34940 ft | 451 kts | 69° |
| 2026-04-29 09:37 | 38.63849 | 0.57859 | 34940 ft | 451 kts | 69° |
| 2026-04-29 09:38 | 38.65813 | 0.64102 | 34944 ft | 451 kts | 69° |
| 2026-04-29 09:38 | 38.68153 | 0.71560 | 34941 ft | 452 kts | 69° |
| 2026-04-29 09:39 | 38.70494 | 0.79020 | 34942 ft | 451 kts | 69° |
| 2026-04-29 09:39 | 38.72824 | 0.86422 | 34942 ft | 451 kts | 69° |
| 2026-04-29 09:40 | 38.75154 | 0.93878 | 34942 ft | 451 kts | 69° |
| 2026-04-29 09:40 | 38.77472 | 1.01335 | 34936 ft | 450 kts | 69° |
| 2026-04-29 09:41 | 38.79787 | 1.08801 | 34927 ft | 451 kts | 69° |
| 2026-04-29 09:41 | 38.82093 | 1.16269 | 34918 ft | 451 kts | 69° |
| 2026-04-29 09:42 | 38.84398 | 1.23744 | 34917 ft | 451 kts | 69° |
| 2026-04-29 09:42 | 38.86707 | 1.31225 | 34915 ft | 451 kts | 69° |
| 2026-04-29 09:43 | 38.89002 | 1.38717 | 34917 ft | 451 kts | 69° |
| 2026-04-29 09:43 | 38.91279 | 1.46177 | 34921 ft | 451 kts | 69° |
| 2026-04-29 09:44 | 38.93542 | 1.53692 | 34927 ft | 451 kts | 70° |
| 2026-04-29 09:44 | 38.95755 | 1.61219 | 34934 ft | 450 kts | 70° |
| 2026-04-29 09:45 | 38.97957 | 1.68747 | 34942 ft | 450 kts | 70° |
| 2026-04-29 09:45 | 39.00160 | 1.76274 | 34950 ft | 449 kts | 70° |
| 2026-04-29 09:46 | 39.02360 | 1.83790 | 34952 ft | 449 kts | 70° |
| 2026-04-29 09:46 | 39.04541 | 1.91262 | 34950 ft | 449 kts | 70° |
| 2026-04-29 09:47 | 39.06733 | 1.98772 | 34950 ft | 449 kts | 70° |
| 2026-04-29 09:47 | 39.08918 | 2.06302 | 34951 ft | 449 kts | 70° |
| 2026-04-29 09:48 | 39.11091 | 2.13826 | 34949 ft | 448 kts | 70° |
| 2026-04-29 09:48 | 39.13269 | 2.21349 | 34949 ft | 448 kts | 70° |
| 2026-04-29 09:49 | 39.15436 | 2.28877 | 34950 ft | 448 kts | 70° |
| 2026-04-29 09:49 | 39.17591 | 2.36416 | 34950 ft | 448 kts | 70° |
| 2026-04-29 09:50 | 39.19739 | 2.43942 | 34949 ft | 447 kts | 70° |
| 2026-04-29 09:50 | 39.21891 | 2.51468 | 34950 ft | 447 kts | 70° |
| 2026-04-29 09:51 | 39.24028 | 2.58988 | 34950 ft | 446 kts | 70° |
| 2026-04-29 09:51 | 39.26161 | 2.66504 | 34952 ft | 446 kts | 70° |
| 2026-04-29 09:52 | 39.28278 | 2.74021 | 34950 ft | 445 kts | 70° |
| 2026-04-29 09:52 | 39.30383 | 2.81480 | 34946 ft | 445 kts | 70° |
| 2026-04-29 09:53 | 39.32505 | 2.88978 | 34946 ft | 444 kts | 70° |
| 2026-04-29 09:53 | 39.34610 | 2.96480 | 34951 ft | 444 kts | 70° |
| 2026-04-29 09:54 | 39.36705 | 3.03977 | 34956 ft | 443 kts | 70° |
| 2026-04-29 09:54 | 39.38800 | 3.11474 | 34957 ft | 443 kts | 71° |
| 2026-04-29 09:55 | 39.40887 | 3.18970 | 34958 ft | 443 kts | 71° |
| 2026-04-29 09:55 | 39.43114 | 3.26398 | 34950 ft | 444 kts | 63° |
| 2026-04-29 09:56 | 39.46243 | 3.33290 | 34947 ft | 444 kts | 59° |
| 2026-04-29 09:56 | 39.49416 | 3.40151 | 34946 ft | 445 kts | 59° |
| 2026-04-29 09:57 | 39.52582 | 3.47040 | 34950 ft | 445 kts | 60° |
| 2026-04-29 09:57 | 39.55730 | 3.53937 | 34962 ft | 445 kts | 60° |
| 2026-04-29 09:58 | 39.58879 | 3.60845 | 34968 ft | 444 kts | 60° |
| 2026-04-29 09:58 | 39.62009 | 3.67700 | 34977 ft | 444 kts | 60° |
| 2026-04-29 09:59 | 39.65147 | 3.74584 | 34984 ft | 443 kts | 60° |
| 2026-04-29 09:59 | 39.68271 | 3.81458 | 34981 ft | 442 kts | 61° |
| 2026-04-29 10:00 | 39.71380 | 3.88341 | 34981 ft | 441 kts | 61° |
| 2026-04-29 10:00 | 39.74481 | 3.95204 | 34987 ft | 440 kts | 61° |
| 2026-04-29 10:01 | 39.77581 | 4.02061 | 34978 ft | 440 kts | 61° |
| 2026-04-29 10:01 | 39.80663 | 4.08923 | 34977 ft | 440 kts | 61° |
| 2026-04-29 10:02 | 39.83746 | 4.15794 | 34980 ft | 440 kts | 61° |
| 2026-04-29 10:02 | 39.86832 | 4.22668 | 34976 ft | 440 kts | 61° |
| 2026-04-29 10:03 | 39.89920 | 4.29550 | 34973 ft | 440 kts | 61° |
| 2026-04-29 10:03 | 39.93008 | 4.36434 | 34973 ft | 440 kts | 61° |
| 2026-04-29 10:04 | 39.96087 | 4.43315 | 34966 ft | 439 kts | 61° |
| 2026-04-29 10:04 | 39.99134 | 4.50161 | 34965 ft | 439 kts | 61° |
| 2026-04-29 10:05 | 40.02198 | 4.57049 | 34965 ft | 439 kts | 61° |
| 2026-04-29 10:05 | 40.05270 | 4.63957 | 34966 ft | 439 kts | 61° |
| 2026-04-29 10:06 | 40.08328 | 4.70852 | 34962 ft | 439 kts | 61° |
| 2026-04-29 10:06 | 40.11380 | 4.77754 | 34970 ft | 438 kts | 61° |
| 2026-04-29 10:07 | 40.14424 | 4.84645 | 34960 ft | 438 kts | 61° |
| 2026-04-29 10:07 | 40.17464 | 4.91540 | 34960 ft | 438 kts | 61° |
| 2026-04-29 10:08 | 40.20500 | 4.98443 | 34966 ft | 437 kts | 61° |
| 2026-04-29 10:08 | 40.23516 | 5.05301 | 34965 ft | 437 kts | 61° |
| 2026-04-29 10:09 | 40.26550 | 5.12207 | 34967 ft | 438 kts | 61° |
| 2026-04-29 10:09 | 40.29577 | 5.19127 | 34964 ft | 438 kts | 61° |
| 2026-04-29 10:10 | 40.32595 | 5.26061 | 34961 ft | 438 kts | 61° |
| 2026-04-29 10:10 | 40.35609 | 5.32995 | 34958 ft | 438 kts | 61° |
| 2026-04-29 10:11 | 40.38701 | 5.39881 | 34952 ft | 439 kts | 55° |
| 2026-04-29 10:11 | 40.42539 | 5.46119 | 34953 ft | 439 kts | 51° |
| 2026-04-29 10:12 | 40.46414 | 5.52328 | 34952 ft | 440 kts | 51° |
| 2026-04-29 10:12 | 40.50285 | 5.58567 | 34953 ft | 441 kts | 51° |
| 2026-04-29 10:13 | 40.54132 | 5.64778 | 34950 ft | 441 kts | 51° |
| 2026-04-29 10:13 | 40.58014 | 5.71053 | 34951 ft | 442 kts | 51° |
| 2026-04-29 10:14 | 40.61907 | 5.77338 | 34951 ft | 443 kts | 51° |
| 2026-04-29 10:14 | 40.65801 | 5.83648 | 34955 ft | 444 kts | 51° |
| 2026-04-29 10:15 | 40.69692 | 5.89980 | 34959 ft | 445 kts | 51° |
| 2026-04-29 10:15 | 40.73595 | 5.96320 | 34965 ft | 445 kts | 50° |
| 2026-04-29 10:16 | 40.77007 | 6.01404 | 34965 ft | 446 kts | 47° |
| 2026-04-29 10:16 | 40.82013 | 6.08327 | 34966 ft | 446 kts | 46° |
| 2026-04-29 10:17 | 40.86284 | 6.14275 | 34970 ft | 446 kts | 46° |
| 2026-04-29 10:17 | 40.90504 | 6.20292 | 34970 ft | 446 kts | 47° |
| 2026-04-29 10:18 | 40.94693 | 6.26350 | 34970 ft | 446 kts | 47° |
| 2026-04-29 10:18 | 40.98889 | 6.32411 | 34973 ft | 447 kts | 47° |
| 2026-04-29 10:19 | 41.03094 | 6.38471 | 34975 ft | 447 kts | 46° |
| 2026-04-29 10:19 | 41.07312 | 6.44536 | 34979 ft | 447 kts | 46° |
| 2026-04-29 10:20 | 41.11523 | 6.50603 | 34985 ft | 447 kts | 46° |
| 2026-04-29 10:20 | 41.15731 | 6.56689 | 34986 ft | 447 kts | 46° |
| 2026-04-29 10:21 | 41.19895 | 6.62740 | 34990 ft | 447 kts | 46° |
| 2026-04-29 10:21 | 41.24088 | 6.68849 | 34995 ft | 447 kts | 46° |
| 2026-04-29 10:22 | 41.28276 | 6.74951 | 34992 ft | 446 kts | 46° |
| 2026-04-29 10:22 | 41.32457 | 6.81054 | 34992 ft | 446 kts | 46° |
| 2026-04-29 10:23 | 41.36627 | 6.87165 | 34990 ft | 446 kts | 46° |
| 2026-04-29 10:23 | 41.40797 | 6.93282 | 34987 ft | 446 kts | 46° |
| 2026-04-29 10:24 | 41.44971 | 6.99408 | 34990 ft | 447 kts | 46° |
| 2026-04-29 10:24 | 41.49146 | 7.05551 | 34991 ft | 447 kts | 46° |
| 2026-04-29 10:25 | 41.52607 | 7.10663 | 34988 ft | 447 kts | 46° |
| 2026-04-29 10:25 | 41.56774 | 7.16833 | 34990 ft | 447 kts | 46° |
| 2026-04-29 10:26 | 41.60888 | 7.23073 | 34989 ft | 448 kts | 52° |
| 2026-04-29 10:26 | 41.64078 | 7.30235 | 34988 ft | 449 kts | 60° |
| 2026-04-29 10:27 | 41.68585 | 7.41241 | 34992 ft | 450 kts | 60° |
| 2026-04-29 10:28 | 41.71601 | 7.48590 | 34995 ft | 451 kts | 60° |
| 2026-04-29 10:28 | 41.74606 | 7.55951 | 34995 ft | 451 kts | 60° |
| 2026-04-29 10:29 | 41.77602 | 7.63337 | 34999 ft | 451 kts | 60° |
| 2026-04-29 10:29 | 41.79102 | 7.67042 | 34808 ft | 452 kts | 60° |
| 2026-04-29 10:29 | 41.80601 | 7.70742 | 34567 ft | 452 kts | 60° |
| 2026-04-29 10:29 | 41.82100 | 7.74443 | 34336 ft | 452 kts | 60° |
| 2026-04-29 10:30 | 41.83581 | 7.78097 | 34096 ft | 450 kts | 60° |
| 2026-04-29 10:30 | 41.85073 | 7.81789 | 33835 ft | 449 kts | 60° |
| 2026-04-29 10:30 | 41.86552 | 7.85461 | 33559 ft | 447 kts | 60° |
| 2026-04-29 10:30 | 41.88028 | 7.89124 | 33293 ft | 445 kts | 60° |
| 2026-04-29 10:31 | 41.89515 | 7.92819 | 33019 ft | 444 kts | 60° |
| 2026-04-29 10:31 | 41.90976 | 7.96461 | 32744 ft | 442 kts | 60° |
| 2026-04-29 10:31 | 41.92427 | 8.00092 | 32485 ft | 441 kts | 60° |
| 2026-04-29 10:31 | 41.93873 | 8.03713 | 32225 ft | 439 kts | 60° |
| 2026-04-29 10:32 | 41.95295 | 8.07275 | 31970 ft | 438 kts | 60° |
| 2026-04-29 10:32 | 41.96727 | 8.10866 | 31594 ft | 434 kts | 60° |
| 2026-04-29 10:32 | 41.98151 | 8.14436 | 31043 ft | 432 kts | 60° |
| 2026-04-29 10:32 | 41.99569 | 8.17994 | 30500 ft | 431 kts | 60° |
| 2026-04-29 10:33 | 42.00980 | 8.21544 | 29945 ft | 429 kts | 60° |
| 2026-04-29 10:33 | 42.02383 | 8.25071 | 29384 ft | 426 kts | 60° |
| 2026-04-29 10:33 | 42.03776 | 8.28570 | 28874 ft | 422 kts | 60° |
| 2026-04-29 10:33 | 42.05153 | 8.32035 | 28364 ft | 418 kts | 61° |
| 2026-04-29 10:34 | 42.06517 | 8.35478 | 27870 ft | 415 kts | 61° |
| 2026-04-29 10:34 | 42.07867 | 8.38888 | 27399 ft | 411 kts | 61° |
| 2026-04-29 10:34 | 42.09207 | 8.42279 | 26922 ft | 408 kts | 61° |
| 2026-04-29 10:34 | 42.10537 | 8.45648 | 26458 ft | 405 kts | 61° |
| 2026-04-29 10:35 | 42.11856 | 8.48991 | 25997 ft | 403 kts | 61° |
| 2026-04-29 10:35 | 42.13165 | 8.52313 | 25523 ft | 401 kts | 61° |
| 2026-04-29 10:35 | 42.14465 | 8.55622 | 25056 ft | 398 kts | 61° |
| 2026-04-29 10:35 | 42.15760 | 8.58917 | 24571 ft | 398 kts | 61° |
| 2026-04-29 10:36 | 42.17052 | 8.62206 | 24085 ft | 397 kts | 61° |
| 2026-04-29 10:36 | 42.18343 | 8.65491 | 23578 ft | 396 kts | 61° |
| 2026-04-29 10:36 | 42.19629 | 8.68774 | 23022 ft | 395 kts | 61° |
| 2026-04-29 10:36 | 42.20895 | 8.72010 | 22531 ft | 393 kts | 62° |
| 2026-04-29 10:37 | 42.22169 | 8.75270 | 22025 ft | 392 kts | 60° |
| 2026-04-29 10:37 | 42.23714 | 8.78270 | 21528 ft | 389 kts | 46° |
| 2026-04-29 10:37 | 42.25757 | 8.80609 | 21039 ft | 384 kts | 31° |
| 2026-04-29 10:37 | 42.28151 | 8.82156 | 20505 ft | 381 kts | 15° |
| 2026-04-29 10:38 | 42.30742 | 8.82825 | 19958 ft | 379 kts | 1° |
| 2026-04-29 10:38 | 42.33373 | 8.82844 | 19422 ft | 378 kts | 358° |
| 2026-04-29 10:38 | 42.36006 | 8.82833 | 18975 ft | 377 kts | 358° |
| 2026-04-29 10:38 | 42.38621 | 8.82831 | 18437 ft | 378 kts | 358° |
| 2026-04-29 10:39 | 42.41227 | 8.82834 | 18098 ft | 372 kts | 358° |
| 2026-04-29 10:39 | 42.43810 | 8.82843 | 17609 ft | 370 kts | 359° |
| 2026-04-29 10:39 | 42.46356 | 8.83306 | 17152 ft | 370 kts | 15° |
| 2026-04-29 10:39 | 42.48745 | 8.84579 | 16694 ft | 369 kts | 22° |
| 2026-04-29 10:40 | 42.51093 | 8.85962 | 16249 ft | 367 kts | 22° |
| 2026-04-29 10:40 | 42.53428 | 8.87338 | 15826 ft | 364 kts | 22° |
| 2026-04-29 10:40 | 42.55750 | 8.88702 | 15419 ft | 362 kts | 22° |
| 2026-04-29 10:40 | 42.58048 | 8.90051 | 15025 ft | 359 kts | 22° |
| 2026-04-29 10:41 | 42.60311 | 8.91382 | 14633 ft | 356 kts | 22° |
| 2026-04-29 10:41 | 42.62587 | 8.92729 | 14174 ft | 356 kts | 22° |
| 2026-04-29 10:41 | 42.64850 | 8.94071 | 13749 ft | 355 kts | 22° |
| 2026-04-29 10:41 | 42.67097 | 8.95402 | 13336 ft | 351 kts | 22° |
| 2026-04-29 10:42 | 42.69330 | 8.96724 | 12911 ft | 348 kts | 23° |
| 2026-04-29 10:42 | 42.71577 | 8.97932 | 12440 ft | 345 kts | 15° |
| 2026-04-29 10:42 | 42.73924 | 8.98486 | 11954 ft | 342 kts | 1° |
| 2026-04-29 10:42 | 42.76294 | 8.98501 | 11501 ft | 340 kts | 359° |
| 2026-04-29 10:43 | 42.78650 | 8.98491 | 11054 ft | 337 kts | 359° |
| 2026-04-29 10:43 | 42.80991 | 8.98481 | 10595 ft | 335 kts | 359° |
| 2026-04-29 10:43 | 42.83320 | 8.98473 | 10152 ft | 334 kts | 359° |
| 2026-04-29 10:43 | 42.85609 | 8.98426 | 9991 ft | 322 kts | 354° |
| 2026-04-29 10:44 | 42.87661 | 8.97481 | 9869 ft | 307 kts | 324° |
| 2026-04-29 10:44 | 42.89052 | 8.95373 | 9412 ft | 302 kts | 295° |
| 2026-04-29 10:44 | 42.89560 | 8.92576 | 8565 ft | 309 kts | 272° |
| 2026-04-29 10:44 | 42.89577 | 8.89691 | 8049 ft | 296 kts | 265° |
| 2026-04-29 10:45 | 42.89437 | 8.86987 | 7793 ft | 276 kts | 263° |
| 2026-04-29 10:45 | 42.89251 | 8.84461 | 7365 ft | 264 kts | 257° |
| 2026-04-29 10:45 | 42.88581 | 8.82158 | 6738 ft | 260 kts | 234° |
| 2026-04-29 10:45 | 42.87372 | 8.80443 | 6423 ft | 244 kts | 214° |
| 2026-04-29 10:46 | 42.85909 | 8.79454 | 6165 ft | 229 kts | 195° |
| 2026-04-29 10:46 | 42.84358 | 8.79157 | 5884 ft | 224 kts | 179° |
| 2026-04-29 10:46 | 42.82826 | 8.79163 | 5608 ft | 219 kts | 180° |
| 2026-04-29 10:46 | 42.81304 | 8.79163 | 5316 ft | 218 kts | 180° |
| 2026-04-29 10:47 | 42.79791 | 8.79170 | 5028 ft | 217 kts | 179° |
| 2026-04-29 10:47 | 42.78287 | 8.79182 | 4732 ft | 213 kts | 179° |
| 2026-04-29 10:47 | 42.76837 | 8.79191 | 4455 ft | 204 kts | 179° |
| 2026-04-29 10:47 | 42.75433 | 8.79202 | 4226 ft | 199 kts | 179° |
| 2026-04-29 10:48 | 42.74060 | 8.79206 | 3924 ft | 196 kts | 179° |
| 2026-04-29 10:48 | 42.72713 | 8.79208 | 3665 ft | 191 kts | 179° |
| 2026-04-29 10:48 | 42.71398 | 8.79211 | 3417 ft | 187 kts | 179° |
| 2026-04-29 10:48 | 42.70110 | 8.79214 | 3169 ft | 183 kts | 179° |
| 2026-04-29 10:49 | 42.68848 | 8.79222 | 2931 ft | 180 kts | 179° |
| 2026-04-29 10:49 | 42.67609 | 8.79232 | 2698 ft | 176 kts | 179° |
| 2026-04-29 10:49 | 42.66394 | 8.79237 | 2462 ft | 173 kts | 179° |
| 2026-04-29 10:49 | 42.65199 | 8.79238 | 2235 ft | 169 kts | 179° |
| 2026-04-29 10:50 | 42.64058 | 8.79241 | 2007 ft | 159 kts | 178° |
| 2026-04-29 10:50 | 42.62967 | 8.79251 | 1807 ft | 155 kts | 178° |
| 2026-04-29 10:50 | 42.61895 | 8.79256 | 1603 ft | 153 kts | 179° |
| 2026-04-29 10:50 | 42.60829 | 8.79262 | 1411 ft | 153 kts | 179° |
| 2026-04-29 10:51 | 42.59754 | 8.79268 | 1217 ft | 155 kts | 179° |
| 2026-04-29 10:51 | 42.58670 | 8.79275 | 1010 ft | 156 kts | 180° |
| 2026-04-29 10:51 | 42.57579 | 8.79280 | 787 ft | 157 kts | 182° |
| 2026-04-29 10:51 | 42.56492 | 8.79285 | 566 ft | 156 kts | 183° |
| 2026-04-29 10:52 | 42.55409 | 8.79290 | 378 ft | 156 kts | 182° |
| 2026-04-29 10:52 | 42.54325 | 8.79292 | 193 ft | 155 kts | 182° |
| 2026-04-29 10:52 | 42.53279 | 8.79291 | 129 ft | 130 kts | 180° |
| 2026-04-29 10:52 | 42.52650 | 8.79300 | 170 ft | 63 kts | 180° |
| 2026-04-29 10:53 | 42.52448 | 8.79297 | 181 ft | 9 kts | 196° |
| 2026-04-29 10:53 | 42.52434 | 8.79234 | 181 ft | 8 kts | 273° |
| 2026-04-29 10:53 | 42.52444 | 8.79173 | 180 ft | 6 kts | 314° |
| 2026-04-29 10:53 | 42.52489 | 8.79144 | 179 ft | 9 kts | 311° |
| 2026-04-29 10:54 | 42.52508 | 8.79105 | 179 ft | 4 kts | 300° |
| 2026-04-29 10:54 | 42.52517 | 8.79084 | 179 ft | 1 kts | 300° |
| 2026-04-29 10:54 | 42.52518 | 8.79082 | 179 ft | 0 kts | 300° |